createdAt,value
2019-02-17T00:01:43.777Z,71.10
2019-02-17T00:04:13.452Z,70.70
2019-02-17T00:06:41.689Z,70.60
2019-02-17T00:09:12.401Z,68.70
2019-02-17T00:11:40.742Z,67.20
2019-02-17T00:14:08.797Z,65.60
2019-02-17T00:16:36.990Z,64.50
2019-02-17T00:19:05.242Z,64.40
2019-02-17T00:21:33.418Z,64.30
2019-02-17T00:24:01.407Z,64.60
2019-02-17T00:26:29.768Z,64.50
2019-02-17T00:28:59.808Z,63.90
2019-02-17T00:31:27.742Z,63.80
2019-02-17T00:33:55.933Z,62.70
2019-02-17T00:36:24.213Z,61.20
2019-02-17T00:38:53.097Z,61.00
2019-02-17T00:41:20.990Z,60.60
2019-02-17T00:43:49.180Z,60.50
2019-02-17T00:46:17.417Z,60.00
2019-02-17T00:48:45.810Z,60.90
2019-02-17T00:51:13.861Z,61.80
2019-02-17T00:53:41.770Z,60.00
2019-02-17T00:56:09.718Z,59.60
2019-02-17T00:58:38.378Z,59.70
2019-02-17T01:01:06.488Z,59.80
2019-02-17T01:03:34.830Z,61.10
2019-02-17T01:06:03.742Z,61.00
2019-02-17T01:08:31.626Z,61.00
2019-02-17T01:11:00.273Z,61.00
2019-02-17T01:13:28.365Z,61.60
2019-02-17T01:15:56.718Z,61.90
2019-02-17T01:18:24.821Z,62.60
2019-02-17T01:20:52.873Z,63.10
2019-02-17T01:23:21.069Z,64.30
2019-02-17T01:25:49.017Z,65.30
2019-02-17T01:28:17.694Z,66.30
2019-02-17T01:30:45.907Z,67.70
2019-02-17T01:33:13.876Z,68.20
2019-02-17T01:35:41.928Z,68.80
2019-02-17T01:38:10.010Z,69.30
2019-02-17T01:40:38.362Z,69.10
2019-02-17T01:43:06.454Z,69.80
2019-02-17T01:45:35.123Z,71.10
2019-02-17T01:48:03.873Z,72.40
2019-02-17T01:50:32.231Z,71.00
2019-02-17T01:53:00.562Z,69.60
2019-02-17T01:55:28.962Z,69.90
2019-02-17T01:57:57.370Z,69.90
2019-02-17T02:00:25.392Z,70.00
2019-02-17T02:02:53.574Z,67.20
2019-02-17T02:05:21.855Z,66.80
2019-02-17T02:07:50.232Z,65.50
2019-02-17T02:10:18.437Z,65.40
2019-02-17T02:12:46.461Z,64.70
2019-02-17T02:15:14.997Z,64.40
2019-02-17T02:17:43.013Z,64.70
2019-02-17T02:20:12.245Z,64.00
2019-02-17T02:22:40.831Z,64.20
2019-02-17T02:25:09.706Z,63.80
2019-02-17T02:27:37.654Z,63.10
2019-02-17T02:30:07.201Z,63.40
2019-02-17T02:32:35.287Z,62.00
2019-02-17T02:35:04.269Z,62.00
2019-02-17T02:37:32.405Z,61.10
2019-02-17T02:40:00.687Z,60.30
2019-02-17T02:42:29.071Z,60.70
2019-02-17T02:44:57.144Z,59.70
2019-02-17T02:47:25.332Z,59.00
2019-02-17T02:49:53.586Z,59.40
2019-02-17T02:52:21.650Z,58.20
2019-02-17T02:54:49.840Z,58.70
2019-02-17T02:57:18.126Z,58.20
2019-02-17T02:59:52.479Z,58.50
2019-02-17T03:02:16.413Z,58.20
2019-02-17T03:04:44.770Z,57.90
2019-02-17T03:07:15.829Z,58.90
2019-02-17T03:09:44.013Z,59.00
2019-02-17T03:12:12.092Z,58.70
2019-02-17T03:14:41.675Z,58.70
2019-02-17T03:17:09.830Z,58.50
2019-02-17T03:19:38.131Z,58.20
2019-02-17T03:22:05.999Z,58.00
2019-02-17T03:24:34.302Z,58.00
2019-02-17T03:27:02.369Z,56.80
2019-02-17T03:29:30.795Z,56.80
2019-02-17T03:31:59.470Z,56.30
2019-02-17T03:34:27.782Z,56.20
2019-02-17T03:36:56.180Z,56.00
2019-02-17T03:39:24.217Z,55.80
2019-02-17T03:41:52.911Z,56.20
2019-02-17T03:44:21.007Z,55.50
2019-02-17T03:46:49.202Z,54.90
2019-02-17T03:49:17.162Z,54.80
2019-02-17T03:51:45.198Z,54.80
2019-02-17T03:54:13.554Z,55.00
2019-02-17T03:56:42.130Z,55.20
2019-02-17T03:59:10.636Z,54.60
2019-02-17T04:01:38.729Z,55.20
2019-02-17T04:04:06.893Z,55.70
2019-02-17T04:06:35.148Z,56.00
2019-02-17T04:09:05.452Z,55.80
2019-02-17T04:11:33.491Z,57.00
2019-02-17T04:14:01.838Z,57.10
2019-02-17T04:16:30.237Z,57.00
2019-02-17T04:18:58.293Z,56.60
2019-02-17T04:21:26.967Z,56.10
2019-02-17T04:23:55.364Z,55.70
2019-02-17T04:26:23.462Z,55.60
2019-02-17T04:28:51.804Z,55.60
2019-02-17T04:31:20.175Z,55.80
2019-02-17T04:33:48.569Z,56.10
2019-02-17T04:36:17.336Z,55.80
2019-02-17T04:38:45.637Z,55.60
2019-02-17T04:41:13.691Z,54.90
2019-02-17T04:43:42.647Z,55.60
2019-02-17T04:46:10.770Z,55.20
2019-02-17T04:48:38.927Z,55.60
2019-02-17T04:51:07.238Z,55.90
2019-02-17T04:53:35.283Z,55.40
2019-02-17T04:56:03.956Z,55.80
2019-02-17T04:58:32.614Z,55.10
2019-02-17T05:01:01.599Z,54.80
2019-02-17T05:03:29.827Z,55.10
2019-02-17T05:05:58.072Z,55.00
2019-02-17T05:08:26.175Z,54.80
2019-02-17T05:10:54.335Z,54.40
2019-02-17T05:13:22.627Z,54.20
2019-02-17T05:15:50.780Z,53.60
2019-02-17T05:18:19.042Z,53.80
2019-02-17T05:20:47.758Z,53.40
2019-02-17T05:23:16.154Z,54.30
2019-02-17T05:25:44.296Z,54.00
2019-02-17T05:28:12.478Z,53.50
2019-02-17T05:30:51.647Z,53.70
2019-02-17T05:33:13.906Z,53.50
2019-02-17T05:35:42.650Z,54.00
2019-02-17T05:38:11.048Z,53.90
2019-02-17T05:40:39.675Z,53.30
2019-02-17T05:43:07.782Z,53.10
2019-02-17T05:45:36.145Z,53.40
2019-02-17T05:48:04.552Z,52.70
2019-02-17T05:50:32.591Z,52.90
2019-02-17T05:53:00.771Z,52.40
2019-02-17T05:55:29.339Z,52.40
2019-02-17T05:57:58.033Z,52.80
2019-02-17T06:00:30.019Z,52.90
2019-02-17T06:02:57.877Z,52.80
2019-02-17T06:05:26.040Z,53.00
2019-02-17T06:07:54.306Z,53.10
2019-02-17T06:10:22.657Z,53.80
2019-02-17T06:12:50.802Z,53.30
2019-02-17T06:15:18.887Z,53.50
2019-02-17T06:17:47.656Z,53.40
2019-02-17T06:20:16.514Z,54.20
2019-02-17T06:22:44.587Z,54.60
2019-02-17T06:25:13.142Z,55.00
2019-02-17T06:27:41.657Z,55.10
2019-02-17T06:30:09.806Z,55.40
2019-02-17T06:32:37.782Z,55.60
2019-02-17T06:35:06.474Z,56.10
2019-02-17T06:37:34.981Z,56.40
2019-02-17T06:40:03.134Z,56.30
2019-02-17T06:42:31.618Z,56.50
2019-02-17T06:44:59.483Z,56.60
2019-02-17T06:47:31.632Z,57.50
2019-02-17T06:49:59.897Z,57.40
2019-02-17T06:52:27.897Z,57.30
2019-02-17T06:55:27.857Z,57.80
2019-02-17T06:57:56.091Z,58.10
2019-02-17T07:00:45.550Z,57.60
2019-02-17T07:03:14.419Z,58.10
2019-02-17T07:06:08.292Z,57.80
2019-02-17T07:08:36.539Z,58.10
2019-02-17T07:11:04.610Z,58.30
2019-02-17T07:13:33.058Z,57.90
2019-02-17T07:16:01.625Z,58.30
2019-02-17T07:18:30.027Z,58.10
2019-02-17T07:20:58.798Z,57.30
2019-02-17T07:23:26.895Z,56.30
2019-02-17T07:25:54.850Z,54.30
2019-02-17T07:28:23.270Z,51.80
2019-02-17T07:30:51.395Z,49.30
2019-02-17T07:33:19.368Z,48.00
2019-02-17T07:35:48.086Z,46.70
2019-02-17T07:38:16.217Z,46.30
2019-02-17T07:40:44.491Z,44.30
2019-02-17T07:43:13.501Z,42.10
2019-02-17T07:45:41.565Z,39.80
2019-02-17T07:48:09.958Z,37.80
2019-02-17T07:50:38.024Z,36.90
2019-02-17T07:53:06.380Z,35.50
2019-02-17T07:55:35.061Z,35.70
2019-02-17T07:58:03.442Z,35.00
2019-02-17T08:00:31.932Z,35.10
2019-02-17T08:03:00.401Z,34.40
2019-02-17T08:05:28.889Z,33.80
2019-02-17T08:07:57.326Z,32.90
2019-02-17T08:10:25.496Z,32.60
2019-02-17T08:12:53.767Z,32.10
2019-02-17T08:15:21.905Z,32.00
2019-02-17T08:17:50.233Z,31.40
2019-02-17T08:20:18.288Z,31.70
2019-02-17T08:22:46.924Z,31.50
2019-02-17T08:25:21.798Z,31.40
2019-02-17T08:27:45.344Z,31.00
2019-02-17T08:30:17.097Z,30.20
2019-02-17T08:32:45.294Z,29.80
2019-02-17T08:35:13.439Z,29.90
2019-02-17T08:37:42.178Z,29.50
2019-02-17T08:40:11.152Z,29.30
2019-02-17T08:42:39.178Z,29.80
2019-02-17T08:45:07.370Z,29.70
2019-02-17T08:47:35.428Z,29.20
2019-02-17T08:50:04.462Z,28.90
2019-02-17T08:52:32.698Z,29.00
2019-02-17T08:55:00.862Z,28.70
2019-02-17T08:57:28.897Z,28.30
2019-02-17T08:59:56.915Z,28.00
2019-02-17T09:02:25.016Z,27.90
2019-02-17T09:04:53.067Z,28.00
2019-02-17T09:07:22.309Z,27.40
2019-02-17T09:09:50.425Z,28.00
2019-02-17T09:12:18.782Z,27.90
2019-02-17T09:14:46.933Z,27.60
2019-02-17T09:17:15.441Z,27.20
2019-02-17T09:19:56.594Z,27.30
2019-02-17T09:22:24.989Z,26.80
2019-02-17T09:24:52.952Z,26.60
2019-02-17T09:27:21.269Z,26.70
2019-02-17T09:29:49.541Z,26.60
2019-02-17T09:32:18.205Z,27.10
2019-02-17T09:34:46.579Z,27.00
2019-02-17T09:37:14.890Z,26.50
2019-02-17T09:39:42.938Z,26.50
2019-02-17T09:42:11.102Z,26.30
2019-02-17T09:44:39.544Z,26.40
2019-02-17T09:47:07.451Z,26.70
2019-02-17T09:49:35.833Z,25.90
2019-02-17T09:52:03.927Z,26.00
2019-02-17T09:54:32.589Z,25.80
2019-02-17T09:57:00.795Z,25.80
2019-02-17T09:59:28.541Z,26.30
2019-02-17T10:01:56.487Z,26.60
2019-02-17T10:04:24.603Z,25.90
2019-02-17T10:06:52.939Z,25.70
2019-02-17T10:09:21.003Z,26.20
2019-02-17T10:11:48.777Z,26.00
2019-02-17T10:14:17.101Z,25.90
2019-02-17T10:16:45.343Z,25.80
2019-02-17T10:19:13.553Z,25.30
2019-02-17T10:21:41.650Z,25.30
2019-02-17T10:24:10.494Z,25.40
2019-02-17T10:26:38.439Z,25.80
2019-02-17T10:29:06.507Z,25.20
2019-02-17T10:31:34.597Z,24.90
2019-02-17T10:34:02.666Z,25.50
2019-02-17T10:36:30.729Z,25.30
2019-02-17T10:38:58.714Z,25.00
2019-02-17T10:41:26.771Z,25.50
2019-02-17T10:43:54.931Z,25.10
2019-02-17T10:46:23.375Z,25.10
2019-02-17T10:48:51.100Z,25.40
2019-02-17T10:51:19.463Z,25.20
2019-02-17T10:53:47.201Z,25.20
2019-02-17T10:56:15.317Z,25.20
2019-02-17T10:58:43.141Z,25.50
2019-02-17T11:01:10.981Z,25.20
2019-02-17T11:03:38.881Z,25.50
2019-02-17T11:06:07.034Z,25.30
2019-02-17T11:08:35.358Z,25.30
2019-02-17T11:11:03.401Z,25.30
2019-02-17T11:13:31.842Z,24.70
2019-02-17T11:15:59.853Z,24.80
2019-02-17T11:18:27.918Z,25.00
2019-02-17T11:20:56.605Z,25.10
2019-02-17T11:23:24.574Z,25.20
2019-02-17T11:25:53.089Z,25.40
2019-02-17T11:28:21.342Z,25.40
2019-02-17T11:30:49.817Z,24.70
2019-02-17T11:33:18.522Z,25.00
2019-02-17T11:35:46.567Z,25.60
2019-02-17T11:38:15.004Z,25.50
2019-02-17T11:40:43.325Z,25.30
2019-02-17T11:43:12.008Z,24.80
2019-02-17T11:45:39.882Z,25.00
2019-02-17T11:48:07.850Z,25.20
2019-02-17T11:50:36.288Z,25.60
2019-02-17T11:53:04.292Z,25.30
2019-02-17T11:55:32.459Z,25.00
2019-02-17T11:58:00.557Z,25.80
2019-02-17T12:00:28.505Z,25.30
2019-02-17T12:02:56.611Z,24.90
2019-02-17T12:05:24.733Z,25.20
2019-02-17T12:07:53.249Z,25.10
2019-02-17T12:10:21.148Z,25.30
2019-02-17T12:12:49.497Z,25.80
2019-02-17T12:15:17.885Z,25.70
2019-02-17T12:17:46.241Z,25.80
2019-02-17T12:20:35.355Z,25.60
2019-02-17T12:23:07.789Z,25.00
2019-02-17T12:25:58.129Z,25.60
2019-02-17T12:28:30.338Z,26.00
2019-02-17T12:31:00.990Z,26.20
2019-02-17T12:33:29.141Z,26.30
2019-02-17T12:35:57.117Z,26.10
2019-02-17T12:38:24.994Z,26.10
2019-02-17T12:40:53.269Z,26.30
2019-02-17T12:43:21.659Z,26.40
2019-02-17T12:45:50.018Z,26.80
2019-02-17T12:48:18.126Z,27.20
2019-02-17T12:50:46.478Z,27.30
2019-02-17T12:53:14.853Z,27.90
2019-02-17T12:55:43.247Z,28.30
2019-02-17T12:58:11.316Z,28.80
2019-02-17T13:00:39.397Z,28.40
2019-02-17T13:03:07.569Z,29.10
2019-02-17T13:05:35.809Z,28.70
2019-02-17T13:08:03.949Z,28.20
2019-02-17T13:10:32.269Z,27.70
2019-02-17T13:13:00.438Z,27.80
2019-02-17T13:15:28.516Z,27.90
2019-02-17T13:17:56.525Z,28.10
2019-02-17T13:20:24.597Z,28.10
2019-02-17T13:22:52.628Z,28.20
2019-02-17T13:25:21.005Z,27.80
2019-02-17T13:27:49.849Z,27.90
2019-02-17T13:30:19.407Z,28.20
2019-02-17T13:32:47.893Z,28.40
2019-02-17T13:35:15.768Z,28.00
2019-02-17T13:37:43.919Z,28.20
2019-02-17T13:40:12.486Z,28.00
2019-02-17T13:42:41.177Z,28.20
2019-02-17T13:45:11.017Z,28.40
2019-02-17T13:47:38.886Z,29.20
2019-02-17T13:50:08.817Z,28.50
2019-02-17T13:52:37.182Z,28.70
2019-02-17T13:55:05.890Z,28.40
2019-02-17T13:57:34.228Z,28.50
2019-02-17T14:00:02.833Z,28.40
2019-02-17T14:02:30.828Z,28.70
2019-02-17T14:04:58.752Z,28.30
2019-02-17T14:07:27.463Z,28.80
2019-02-17T14:09:55.506Z,28.50
2019-02-17T14:12:23.878Z,28.30
2019-02-17T14:14:51.975Z,28.30
2019-02-17T14:17:20.650Z,28.50
2019-02-17T14:19:48.727Z,28.10
2019-02-17T14:22:17.394Z,28.60
2019-02-17T14:24:45.374Z,28.80
2019-02-17T14:27:14.054Z,28.80
2019-02-17T14:29:42.149Z,29.00
2019-02-17T14:32:10.529Z,29.10
2019-02-17T14:34:47.302Z,28.90
2019-02-17T14:37:15.601Z,29.00
2019-02-17T14:39:43.878Z,29.00
2019-02-17T14:42:11.918Z,28.30
2019-02-17T14:44:40.159Z,28.50
2019-02-17T14:47:15.914Z,28.70
2019-02-17T14:49:44.739Z,28.70
2019-02-17T14:52:13.516Z,29.10
2019-02-17T14:54:42.152Z,28.90
2019-02-17T14:57:10.293Z,28.70
2019-02-17T14:59:38.694Z,28.80
2019-02-17T15:02:06.771Z,29.00
2019-02-17T15:04:35.160Z,29.10
2019-02-17T15:07:03.211Z,29.10
2019-02-17T15:09:31.615Z,28.80
2019-02-17T15:11:59.737Z,29.00
2019-02-17T15:14:28.035Z,29.20
2019-02-17T15:16:56.066Z,28.70
2019-02-17T15:19:24.440Z,28.80
2019-02-17T15:21:52.557Z,28.80
2019-02-17T15:24:20.898Z,28.80
2019-02-17T15:26:52.932Z,28.80
2019-02-17T15:29:21.138Z,29.20
2019-02-17T15:31:50.698Z,29.40
2019-02-17T15:34:19.110Z,29.10
2019-02-17T15:36:47.755Z,29.00
2019-02-17T15:39:15.930Z,29.30
2019-02-17T15:41:43.848Z,29.40
2019-02-17T15:44:12.067Z,29.60
2019-02-17T15:46:40.133Z,29.90
2019-02-17T15:49:08.333Z,30.00
2019-02-17T15:51:36.806Z,30.00
2019-02-17T15:54:04.831Z,30.00
2019-02-17T15:56:32.993Z,30.00
2019-02-17T15:59:01.018Z,29.70
2019-02-17T16:01:29.139Z,29.90
2019-02-17T16:03:56.956Z,29.50
2019-02-17T16:06:25.279Z,29.20
2019-02-17T16:08:53.361Z,29.10
2019-02-17T16:11:21.491Z,29.20
2019-02-17T16:13:49.513Z,29.40
2019-02-17T16:16:17.705Z,29.60
2019-02-17T16:18:45.466Z,29.50
2019-02-17T16:21:13.927Z,29.70
2019-02-17T16:23:42.109Z,29.90
2019-02-17T16:26:10.169Z,29.80
2019-02-17T16:28:38.620Z,29.80
2019-02-17T16:31:06.635Z,29.90
2019-02-17T16:33:35.207Z,30.00
2019-02-17T16:36:03.692Z,30.00
2019-02-17T16:38:31.858Z,30.40
2019-02-17T16:40:59.870Z,30.30
2019-02-17T16:43:28.945Z,30.60
2019-02-17T16:45:56.872Z,30.70
2019-02-17T16:48:25.057Z,30.90
2019-02-17T16:50:53.421Z,31.10
2019-02-17T16:53:21.631Z,31.40
2019-02-17T16:55:50.109Z,31.40
2019-02-17T16:58:18.274Z,31.70
2019-02-17T17:00:46.271Z,32.20
2019-02-17T17:03:14.754Z,32.30
2019-02-17T17:05:42.984Z,32.40
2019-02-17T17:08:11.162Z,32.70
2019-02-17T17:10:39.745Z,33.00
2019-02-17T17:13:07.839Z,33.60
2019-02-17T17:15:37.187Z,33.70
2019-02-17T17:18:05.493Z,34.20
2019-02-17T17:20:33.882Z,34.20
2019-02-17T17:23:02.255Z,34.40
2019-02-17T17:25:30.354Z,34.80
2019-02-17T17:27:58.504Z,35.30
2019-02-17T17:30:26.821Z,35.50
2019-02-17T17:32:55.207Z,35.70
2019-02-17T17:35:23.328Z,36.20
2019-02-17T17:37:51.358Z,36.30
2019-02-17T17:40:19.391Z,36.40
2019-02-17T17:42:48.065Z,36.80
2019-02-17T17:45:16.173Z,36.80
2019-02-17T17:47:44.185Z,37.00
2019-02-17T17:50:12.947Z,37.30
2019-02-17T17:52:41.336Z,37.40
2019-02-17T17:55:09.666Z,37.60
2019-02-17T17:57:37.955Z,37.90
2019-02-17T18:00:07.050Z,38.60
2019-02-17T18:02:35.221Z,39.10
2019-02-17T18:05:09.344Z,38.70
2019-02-17T18:07:33.192Z,38.90
2019-02-17T18:10:01.470Z,39.10
2019-02-17T18:12:29.546Z,39.30
2019-02-17T18:14:58.341Z,39.30
2019-02-17T18:17:26.283Z,40.00
2019-02-17T18:19:54.969Z,39.60
2019-02-17T18:22:23.060Z,39.70
2019-02-17T18:24:51.227Z,39.80
2019-02-17T18:27:19.189Z,40.10
2019-02-17T18:29:47.370Z,40.30
2019-02-17T18:32:15.628Z,40.60
2019-02-17T18:34:44.038Z,40.80
2019-02-17T18:37:12.034Z,41.00
2019-02-17T18:39:39.872Z,41.50
2019-02-17T18:42:07.934Z,41.90
2019-02-17T18:44:35.992Z,42.30
2019-02-17T18:47:04.178Z,42.70
2019-02-17T18:49:32.446Z,42.90
2019-02-17T18:52:00.860Z,43.40
2019-02-17T18:54:28.894Z,43.90
2019-02-17T18:56:57.570Z,44.30
2019-02-17T18:59:25.678Z,44.90
2019-02-17T19:02:02.835Z,45.30
2019-02-17T19:04:31.041Z,45.70
2019-02-17T19:06:59.188Z,46.00
2019-02-17T19:09:27.157Z,46.40
2019-02-17T19:11:55.340Z,46.60
2019-02-17T19:14:23.597Z,46.90
2019-02-17T19:16:52.015Z,47.30
2019-02-17T19:19:20.157Z,47.70
2019-02-17T19:21:48.446Z,48.00
2019-02-17T19:24:16.635Z,48.40
2019-02-17T19:26:44.690Z,49.00
2019-02-17T19:29:14.038Z,49.90
2019-02-17T19:31:42.866Z,49.80
2019-02-17T19:34:11.806Z,50.10
2019-02-17T19:36:39.938Z,50.50
2019-02-17T19:39:07.995Z,50.90
2019-02-17T19:41:36.258Z,51.30
2019-02-17T19:44:04.472Z,51.80
2019-02-17T19:46:32.728Z,52.00
2019-02-17T19:49:00.648Z,52.30
2019-02-17T19:51:28.834Z,52.60
2019-02-17T19:53:57.373Z,53.10
2019-02-17T19:56:25.485Z,53.40
2019-02-17T19:58:53.833Z,53.50
2019-02-17T20:01:22.097Z,54.10
2019-02-17T20:04:18.491Z,54.20
2019-02-17T20:06:47.159Z,54.50
2019-02-17T20:09:18.554Z,54.80
2019-02-17T20:11:46.770Z,55.20
2019-02-17T20:14:15.272Z,55.40
2019-02-17T20:16:43.497Z,55.60
2019-02-17T20:19:11.967Z,55.90
2019-02-17T20:21:40.033Z,55.90
2019-02-17T20:24:08.419Z,56.10
2019-02-17T20:26:36.693Z,56.00
2019-02-17T20:29:05.472Z,55.80
2019-02-17T20:31:33.490Z,55.70
2019-02-17T20:34:01.509Z,55.10
2019-02-17T20:36:30.524Z,54.60
2019-02-17T20:38:58.687Z,54.50
2019-02-17T20:41:27.006Z,54.00
2019-02-17T20:43:55.574Z,53.60
2019-02-17T20:46:24.050Z,53.60
2019-02-17T20:48:52.572Z,54.10
2019-02-17T20:51:20.773Z,53.70
2019-02-17T20:53:49.007Z,53.70
2019-02-17T20:56:16.962Z,53.50
2019-02-17T20:58:45.601Z,53.40
2019-02-17T21:01:13.686Z,53.10
2019-02-17T21:03:42.271Z,52.90
2019-02-17T21:06:12.896Z,53.00
2019-02-17T21:08:40.350Z,52.50
2019-02-17T21:11:08.526Z,52.00
2019-02-17T21:13:37.205Z,51.90
2019-02-17T21:16:05.702Z,51.50
2019-02-17T21:18:33.874Z,51.40
2019-02-17T21:21:02.063Z,51.70
2019-02-17T21:23:30.323Z,51.30
2019-02-17T21:25:58.259Z,51.70
2019-02-17T21:28:26.473Z,51.80
2019-02-17T21:30:54.565Z,51.60
2019-02-17T21:33:22.617Z,51.80
2019-02-17T21:35:51.285Z,51.90
2019-02-17T21:38:19.456Z,52.00
2019-02-17T21:40:47.526Z,52.20
2019-02-17T21:43:16.142Z,52.50
2019-02-17T21:45:44.317Z,52.50
2019-02-17T21:48:14.109Z,52.60
2019-02-17T21:50:45.567Z,53.10
2019-02-17T21:53:20.585Z,53.00
2019-02-17T21:55:43.562Z,52.80
2019-02-17T21:58:12.089Z,53.00
2019-02-17T22:00:40.045Z,52.80
2019-02-17T22:03:08.423Z,52.70
2019-02-17T22:05:36.458Z,52.60
2019-02-17T22:08:04.659Z,52.90
2019-02-17T22:10:32.689Z,52.70
2019-02-17T22:13:00.955Z,52.70
2019-02-17T22:15:29.150Z,52.50
2019-02-17T22:17:57.099Z,52.70
2019-02-17T22:20:25.288Z,52.40
2019-02-17T22:22:53.409Z,52.70
2019-02-17T22:25:21.622Z,52.90
2019-02-17T22:27:49.822Z,53.10
2019-02-17T22:30:18.086Z,53.50
2019-02-17T22:32:46.271Z,53.60
2019-02-17T22:35:14.409Z,54.20
2019-02-17T22:37:43.193Z,54.30
2019-02-17T22:40:11.789Z,54.50
2019-02-17T22:42:39.758Z,54.50
2019-02-17T22:45:08.687Z,54.80
2019-02-17T22:47:36.836Z,54.50
2019-02-17T22:50:07.495Z,54.70
2019-02-17T22:52:35.444Z,54.70
2019-02-17T22:55:03.603Z,55.50
2019-02-17T22:57:31.518Z,56.10
2019-02-17T22:59:59.543Z,56.30
2019-02-17T23:02:28.236Z,56.60
2019-02-17T23:04:56.329Z,56.70
2019-02-17T23:07:24.534Z,57.40
2019-02-17T23:09:52.506Z,57.00
2019-02-17T23:12:20.878Z,57.50
2019-02-17T23:14:48.921Z,57.70
2019-02-17T23:17:17.372Z,58.20
2019-02-17T23:19:45.357Z,58.50
2019-02-17T23:22:14.089Z,58.30
2019-02-17T23:24:43.920Z,58.40
2019-02-17T23:27:12.949Z,58.50
2019-02-17T23:29:43.002Z,58.50
2019-02-17T23:32:11.525Z,59.00
2019-02-17T23:34:39.660Z,59.40
2019-02-17T23:37:08.063Z,60.00
2019-02-17T23:39:36.671Z,60.30
2019-02-17T23:42:04.912Z,61.10
2019-02-17T23:44:32.860Z,61.50
2019-02-17T23:47:00.887Z,62.10
2019-02-17T23:49:29.587Z,62.90
2019-02-17T23:51:58.659Z,63.00
2019-02-17T23:54:27.272Z,63.60
2019-02-17T23:56:55.953Z,63.50
2019-02-17T23:59:24.332Z,63.80
